Time;durP1;ratioP1;P1;durP2;ratioP2;P2;SDS_P1;SDS_P2;PMS_P1;PMS_P2;Temp;Humidity;BMP_temperature;BMP_pressure;BME280_temperature;BME280_humidity;BME280_pressure;Samples;Min_cycle;Max_cycle;Signal;HPM_P1;HPM_P2
2024/04/26 00:01:19;;;;;;;10.15;3.90;;;;;;;4.09;63.58;95702.31;5212261;27;20004;-73
2024/04/26 00:03:50;;;;;;;10.82;4.43;;;;;;;4.10;63.75;95704.72;5212067;27;20364;-73
2024/04/26 00:06:22;;;;;;;6.88;2.80;;;;;;;4.12;63.78;95705.34;5211422;27;20083;-73
2024/04/26 00:08:51;;;;;;;7.90;4.13;;;;;;;4.17;63.51;95704.84;5212010;27;20018;-73
2024/04/26 00:11:21;;;;;;;11.73;4.30;;;;;;;4.17;63.25;95698.91;5211543;27;20015;-73
2024/04/26 00:13:50;;;;;;;7.78;3.95;;;;;;;4.16;63.44;95694.72;5211875;27;20019;-73
2024/04/26 00:16:19;;;;;;;11.00;4.53;;;;;;;4.17;63.11;95698.91;5211356;27;20055;-73
2024/04/26 00:18:49;;;;;;;6.57;3.80;;;;;;;4.16;63.02;95695.53;5211794;27;20004;-73
2024/04/26 00:21:18;;;;;;;8.65;3.85;;;;;;;4.15;62.90;95698.25;5211749;27;20003;-73
2024/04/26 00:23:50;;;;;;;6.28;3.40;;;;;;;4.12;63.02;95695.03;5212560;27;20003;-73
2024/04/26 00:26:20;;;;;;;8.25;3.90;;;;;;;4.14;62.96;95697.47;5211797;27;20083;-73
2024/04/26 00:28:49;;;;;;;6.03;2.95;;;;;;;4.13;63.06;95698.41;5211670;27;20083;-73
2024/04/26 00:31:21;;;;;;;5.22;2.60;;;;;;;4.10;63.03;95696.97;5212742;27;20464;-73
2024/04/26 00:33:50;;;;;;;3.90;1.92;;;;;;;4.08;63.04;95696.31;5212118;27;20345;-74
2024/04/26 00:36:19;;;;;;;4.18;2.13;;;;;;;4.07;62.94;95697.31;5212218;27;20004;-74
2024/04/26 00:38:51;;;;;;;4.82;2.03;;;;;;;4.06;63.12;95698.25;5211649;27;20022;-73
2024/04/26 00:41:21;;;;;;;4.55;2.28;;;;;;;4.06;63.23;95698.25;5212367;27;20059;-73
2024/04/26 00:43:58;;;;;;;4.30;2.40;;;;;;;4.07;63.36;95696.50;5211395;27;20020;-73
2024/04/26 00:46:28;;;;;;;4.68;2.45;;;;;;;4.06;63.12;95690.50;5211745;27;20003;-73
2024/04/26 00:48:57;;;;;;;3.85;2.28;;;;;;;4.06;63.27;95681.97;5210969;27;20019;-73
2024/04/26 00:51:27;;;;;;;3.03;2.20;;;;;;;4.06;63.33;95687.13;5210988;27;20008;-73
2024/04/26 00:53:59;;;;;;;2.47;2.20;;;;;;;4.09;63.38;95685.03;5210859;27;20356;-73
2024/04/26 00:56:29;;;;;;;2.65;2.03;;;;;;;4.12;63.17;95684.69;5210491;27;20008;-73
2024/04/26 00:59:00;;;;;;;5.78;2.13;;;;;;;4.13;63.22;95688.91;5210991;27;20015;-73
2024/04/26 01:01:29;;;;;;;5.97;2.28;;;;;;;4.17;63.25;95680.84;5210946;27;20019;-73
2024/04/26 01:03:59;;;;;;;3.58;1.90;;;;;;;4.20;63.28;95686.47;5210794;27;20556;-73
2024/04/26 01:06:29;;;;;;;5.65;1.80;;;;;;;4.22;63.11;95686.28;5211177;27;20003;-73
2024/04/26 01:09:01;;;;;;;4.70;2.42;;;;;;;4.23;63.41;95685.34;5210897;27;20018;-73
2024/04/26 01:11:30;;;;;;;3.67;2.17;;;;;;;4.24;63.21;95680.03;5211255;27;20004;-73
2024/04/26 01:14:00;;;;;;;3.92;2.33;;;;;;;4.25;63.21;95676.47;5211161;27;20015;-73
2024/04/26 01:16:29;;;;;;;3.42;1.65;;;;;;;4.26;63.09;95677.25;5210427;27;20014;-73
2024/04/26 01:18:58;;;;;;;2.63;2.40;;;;;;;4.23;63.01;95682.75;5210656;27;20014;-73
2024/04/26 01:21:28;;;;;;;6.03;2.60;;;;;;;4.19;62.99;95682.28;5210951;27;20003;-73
2024/04/26 01:24:06;;;;;;;3.88;2.63;;;;;;;4.17;63.54;95680.84;5210616;27;20015;-73
2024/04/26 01:26:35;;;;;;;4.95;2.45;;;;;;;4.13;63.33;95683.75;5210304;27;20003;-73
2024/04/26 01:29:04;;;;;;;4.18;2.63;;;;;;;4.10;63.33;95688.44;5210453;27;20000;-73
2024/04/26 01:31:34;;;;;;;4.15;2.80;;;;;;;4.05;63.32;95685.53;5210608;27;20007;-73
2024/04/26 01:34:03;;;;;;;7.28;2.92;;;;;;;4.00;63.66;95692.94;5210716;27;20510;-74
2024/04/26 01:36:32;;;;;;;5.68;2.90;;;;;;;3.94;63.72;95689.25;5210272;27;20352;-73
2024/04/26 01:39:02;;;;;;;2.97;2.10;;;;;;;3.92;63.93;95691.19;5210400;27;20003;-73
2024/04/26 01:41:34;;;;;;;4.97;2.10;;;;;;;3.91;64.48;95694.72;5210198;27;20008;-73
2024/04/26 01:44:03;;;;;;;6.40;2.88;;;;;;;3.90;64.02;95687.97;5210181;27;20011;-74
2024/04/26 01:46:32;;;;;;;4.97;2.25;;;;;;;3.89;64.07;95692.31;5210169;27;20484;-73
2024/04/26 01:49:02;;;;;;;2.83;2.08;;;;;;;3.88;64.40;95684.75;5210105;27;20008;-73
2024/04/26 01:51:31;;;;;;;3.60;2.20;;;;;;;3.85;64.22;95691.03;5210210;27;20078;-73
2024/04/26 01:54:00;;;;;;;5.57;2.47;;;;;;;3.84;64.55;95686.03;5209930;27;20000;-73
2024/04/26 01:56:27;;;;;;;3.25;2.20;;;;;;;3.84;64.43;95691.19;5209906;27;20082;-73
2024/04/26 01:58:59;;;;;;;2.55;1.73;;;;;;;3.84;64.54;95694.56;5209961;27;20004;-73
2024/04/26 02:01:31;;;;;;;4.90;2.30;;;;;;;3.84;64.66;95689.41;5211066;27;20004;-73
2024/04/26 02:03:58;;;;;;;2.88;1.92;;;;;;;3.84;64.42;95686.81;5213325;27;20015;-73
2024/04/26 02:06:27;;;;;;;4.03;2.03;;;;;;;3.84;64.58;95693.78;5213295;27;20014;-73
2024/04/26 02:08:54;;;;;;;4.43;2.00;;;;;;;3.82;64.40;95682.81;5212811;27;20388;-73
2024/04/26 02:11:23;;;;;;;3.53;2.15;;;;;;;3.79;64.59;95689.09;5213255;27;20018;-73
2024/04/26 02:13:50;;;;;;;4.88;2.47;;;;;;;3.78;64.41;95689.25;5213344;27;20019;-73
2024/04/26 02:16:22;;;;;;;2.17;1.98;;;;;;;3.79;64.44;95685.72;5213008;27;20016;-74
2024/04/26 02:18:49;;;;;;;2.92;2.15;;;;;;;3.77;64.47;95678.13;5213174;27;20004;-73
2024/04/26 02:21:19;;;;;;;2.63;1.60;;;;;;;3.80;64.23;95682.16;5212791;27;20039;-73
2024/04/26 02:23:46;;;;;;;4.15;1.88;;;;;;;3.82;64.24;95680.22;5212799;27;20016;-73
2024/04/26 02:26:20;;;;;;;3.92;1.85;;;;;;;3.79;64.23;95675.41;5212695;27;20369;-73
2024/04/26 02:28:49;;;;;;;3.97;2.08;;;;;;;3.74;64.27;95678.47;5212664;27;20487;-73
2024/04/26 02:31:22;;;;;;;3.05;2.08;;;;;;;3.74;64.31;95672.47;5212643;27;20015;-74
2024/04/26 02:33:54;;;;;;;;;;;;;;;3.73;64.47;95666.53;5213357;27;20384;-73
2024/04/26 02:36:23;;;;;;;2.47;1.67;;;;;;;3.66;64.14;95666.38;5213060;27;19940;-73
2024/04/26 02:38:53;;;;;;;4.97;1.90;;;;;;;3.60;64.23;95655.88;5213793;27;20003;-73
2024/04/26 02:41:22;;;;;;;3.33;2.00;;;;;;;3.57;64.39;95661.38;5213422;27;20003;-73
2024/04/26 02:43:51;;;;;;;2.97;2.00;;;;;;;3.53;64.60;95660.09;5213146;27;20015;-73
2024/04/26 02:46:21;;;;;;;4.93;1.88;;;;;;;3.53;64.65;95655.72;5212529;27;20018;-73
2024/04/26 02:48:50;;;;;;;2.83;2.10;;;;;;;3.53;64.41;95660.09;5213165;27;20478;-73
2024/04/26 02:51:23;;;;;;;4.47;2.72;;;;;;;3.52;64.64;95659.28;5213099;27;20079;-74
2024/04/26 02:53:52;;;;;;;4.00;2.17;;;;;;;3.50;64.39;95659.44;5212967;27;20019;-74
2024/04/26 02:56:22;;;;;;;4.45;2.25;;;;;;;3.50;64.69;95661.22;5212459;27;20824;-73
2024/04/26 02:58:51;;;;;;;3.78;2.15;;;;;;;3.51;64.63;95668.78;5213068;27;20055;-73
2024/04/26 03:01:20;;;;;;;4.90;2.28;;;;;;;3.49;64.61;95662.97;5213137;27;20003;-73
2024/04/26 03:03:50;;;;;;;4.25;2.28;;;;;;;3.51;64.52;95670.56;5213437;27;20019;-73
2024/04/26 03:06:19;;;;;;;5.45;2.63;;;;;;;3.51;64.66;95660.25;5212872;27;20014;-73
2024/04/26 03:08:51;;;;;;;5.95;2.53;;;;;;;3.50;64.40;95668.97;5212767;27;20008;-73
2024/04/26 03:11:22;;;;;;;4.13;2.25;;;;;;;3.52;64.51;95669.59;5213373;27;20012;-73
2024/04/26 03:13:52;;;;;;;2.67;2.30;;;;;;;3.52;64.19;95667.03;5212463;27;20023;-74
2024/04/26 03:16:19;;;;;;;5.20;2.55;;;;;;;3.50;64.21;95658.66;5212432;27;20007;-73
2024/04/26 03:18:48;;;;;;;4.28;2.75;;;;;;;3.44;64.39;95652.34;5212841;27;20004;-73
2024/04/26 03:21:18;;;;;;;4.55;2.58;;;;;;;3.38;64.44;95645.25;5213057;27;20076;-73
2024/04/26 03:23:48;;;;;;;3.88;2.35;;;;;;;3.30;64.41;95648.63;5212874;27;20022;-73
2024/04/26 03:26:20;;;;;;;3.17;2.60;;;;;;;3.24;65.11;95645.88;5212739;27;20014;-73
2024/04/26 03:28:50;;;;;;;5.80;3.30;;;;;;;3.20;65.17;95650.53;5222537;27;20003;-73
2024/04/26 03:31:23;;;;;;;5.13;2.38;;;;;;;3.19;65.37;95654.09;5217561;27;20008;-73
2024/04/26 03:33:52;;;;;;;4.80;2.50;;;;;;;3.17;64.99;95648.31;5233152;27;20018;-73
2024/04/26 03:36:22;;;;;;;5.80;2.63;;;;;;;3.13;65.23;95652.16;5231917;27;20059;-73
2024/04/26 03:38:52;;;;;;;3.90;2.65;;;;;;;3.09;65.31;95649.09;5232041;27;20011;-73
2024/04/26 03:41:24;;;;;;;4.65;2.83;;;;;;;3.07;65.32;95653.59;5227922;27;20018;-73
2024/04/26 03:43:54;;;;;;;6.45;3.13;;;;;;;3.05;65.13;95662.44;5217797;27;20055;-73
2024/04/26 03:46:23;;;;;;;7.72;2.95;;;;;;;3.04;65.47;95656.50;5217813;27;20004;-74
2024/04/26 03:48:52;;;;;;;5.63;2.78;;;;;;;3.02;65.39;95662.78;5212711;27;20000;-74
2024/04/26 03:51:22;;;;;;;6.97;2.80;;;;;;;3.04;65.44;95655.66;5213435;27;20032;-74
2024/04/26 03:53:52;;;;;;;5.43;3.30;;;;;;;3.03;65.50;95649.72;5212889;27;20019;-74
2024/04/26 03:56:21;;;;;;;3.22;2.70;;;;;;;3.00;65.53;95642.31;5212354;27;20102;-74
2024/04/26 03:58:53;;;;;;;4.60;3.20;;;;;;;2.99;65.52;95647.59;5213034;27;20040;-74
2024/04/26 04:01:22;;;;;;;5.57;3.13;;;;;;;3.00;65.40;95647.47;5212906;27;20007;-74
2024/04/26 04:03:52;;;;;;;4.30;3.20;;;;;;;3.02;65.40;95645.53;5212427;27;20340;-74
2024/04/26 04:06:21;;;;;;;7.70;3.25;;;;;;;3.08;65.63;95644.06;5211724;27;20078;-74
2024/04/26 04:08:51;;;;;;;5.32;2.95;;;;;;;3.11;65.32;95643.78;5212018;27;20015;-74
2024/04/26 04:11:20;;;;;;;4.35;3.20;;;;;;;3.13;65.41;95641.84;5211970;27;20022;-73
2024/04/26 04:13:49;;;;;;;5.60;3.20;;;;;;;3.13;65.23;95639.28;5211477;27;20004;-74
2024/04/26 04:16:21;;;;;;;7.03;4.20;;;;;;;3.11;64.96;95633.47;5210798;27;20012;-73
2024/04/26 04:18:51;;;;;;;11.35;5.07;;;;;;;3.11;65.15;95636.03;5211430;27;20008;-74
2024/04/26 04:21:20;;;;;;;7.00;4.28;;;;;;;3.12;65.12;95627.34;5211640;27;20053;-74
2024/04/26 04:23:49;;;;;;;14.05;4.78;;;;;;;3.15;64.73;95631.34;5210290;27;20004;-74
2024/04/26 04:26:19;;;;;;;9.85;4.13;;;;;;;3.19;64.85;95622.34;5210580;27;20500;-74
2024/04/26 04:28:48;;;;;;;8.70;3.90;;;;;;;3.21;64.88;95625.56;5211335;27;20003;-73
2024/04/26 04:31:18;;;;;;;4.90;3.78;;;;;;;3.26;65.17;95625.91;5210764;27;20014;-74
2024/04/26 04:33:49;;;;;;;8.05;4.32;;;;;;;3.29;64.88;95618.66;5211170;27;20015;-73
2024/04/26 04:36:19;;;;;;;5.03;3.53;;;;;;;3.35;64.85;95627.53;5210606;27;20015;-74
2024/04/26 04:38:48;;;;;;;9.25;4.78;;;;;;;3.40;64.75;95621.88;5211365;27;20490;-74
2024/04/26 04:41:18;;;;;;;11.43;5.85;;;;;;;3.43;64.56;95611.25;5211179;27;20412;-73
2024/04/26 04:43:47;;;;;;;7.13;4.57;;;;;;;3.46;64.77;95618.66;5211167;27;19999;-74
2024/04/26 04:46:16;;;;;;;7.65;4.45;;;;;;;3.48;64.45;95624.47;5210657;27;20008;-74
2024/04/26 04:48:45;;;;;;;7.93;5.03;;;;;;;3.49;64.57;95613.97;5210979;27;20452;-73
2024/04/26 04:51:17;;;;;;;8.23;4.38;;;;;;;3.50;64.16;95620.75;5211210;27;20004;-74
2024/04/26 04:53:47;;;;;;;8.75;4.85;;;;;;;3.50;64.25;95620.75;5210746;27;20015;-74
2024/04/26 04:56:16;;;;;;;11.55;5.20;;;;;;;3.50;64.57;95619.97;5210438;27;20015;-74
2024/04/26 04:58:45;;;;;;;7.55;4.85;;;;;;;3.52;64.46;95615.47;5210703;27;20012;-73
2024/04/26 05:01:15;;;;;;;6.65;4.60;;;;;;;3.54;64.02;95616.06;5210916;27;20022;-74
2024/04/26 05:03:46;;;;;;;11.27;4.93;;;;;;;3.53;64.09;95624.00;5211012;27;20003;-73
2024/04/26 05:06:19;;;;;;;13.32;4.63;;;;;;;3.51;64.39;95634.47;5210138;27;20499;-74
2024/04/26 05:08:48;;;;;;;6.38;4.68;;;;;;;3.50;64.31;95638.00;5210629;27;20007;-74
2024/04/26 05:11:17;;;;;;;7.03;4.45;;;;;;;3.50;64.22;95638.81;5210868;27;20048;-74
2024/04/26 05:13:47;;;;;;;10.10;4.45;;;;;;;3.54;64.32;95633.31;5210570;27;20043;-73
2024/04/26 05:16:16;;;;;;;10.05;5.32;;;;;;;3.57;64.47;95635.59;5210239;27;20007;-74
2024/04/26 05:18:46;;;;;;;8.80;4.93;;;;;;;3.61;64.50;95632.53;5210426;27;20476;-74
2024/04/26 05:21:18;;;;;;;10.30;5.05;;;;;;;3.68;64.43;95630.09;5210265;27;20004;-74
2024/04/26 05:23:47;;;;;;;6.72;4.68;;;;;;;3.75;64.28;95635.41;5211414;27;20004;-74
2024/04/26 05:26:17;;;;;;;7.78;5.38;;;;;;;3.81;64.12;95633.00;5209978;27;20016;-74
2024/04/26 05:28:46;;;;;;;8.65;5.05;;;;;;;3.86;64.14;95629.91;5210268;27;20000;-74
2024/04/26 05:31:15;;;;;;;7.40;5.22;;;;;;;3.89;64.03;95627.00;5210621;27;20015;-74
2024/04/26 05:33:45;;;;;;;8.77;5.28;;;;;;;3.93;64.31;95625.69;5210227;27;20008;-73
2024/04/26 05:36:14;;;;;;;5.95;4.97;;;;;;;3.98;63.90;95638.09;5211018;27;20051;-74
2024/04/26 05:38:46;;;;;;;12.82;6.07;;;;;;;4.01;63.75;95638.59;5211836;27;20012;-73
2024/04/26 05:41:16;;;;;;;9.68;5.90;;;;;;;4.06;63.73;95640.69;5210955;27;20044;-74
2024/04/26 05:43:45;;;;;;;8.52;5.43;;;;;;;4.11;63.89;95649.56;5211145;27;20042;-74
2024/04/26 05:46:14;;;;;;;9.23;5.47;;;;;;;4.15;63.90;95638.88;5211134;27;20022;-74
2024/04/26 05:48:44;;;;;;;6.93;4.95;;;;;;;4.19;63.81;95640.19;5210508;27;20004;-73
2024/04/26 05:51:16;;;;;;;9.25;4.90;;;;;;;4.24;63.81;95643.88;5210421;27;20475;-74
2024/04/26 05:53:50;;;;;;;9.60;5.03;;;;;;;4.32;64.02;95646.41;5210797;27;20024;-74
2024/04/26 05:56:20;;;;;;;9.43;5.03;;;;;;;4.42;63.75;95653.19;5210240;27;20008;-73
2024/04/26 05:58:50;;;;;;;9.25;5.30;;;;;;;4.47;63.19;95643.97;5211130;27;20000;-74
2024/04/26 06:01:19;;;;;;;5.80;4.70;;;;;;;4.52;63.06;95649.41;5210091;27;20004;-74
2024/04/26 06:03:48;;;;;;;7.70;4.57;;;;;;;4.56;62.89;95649.09;5210061;27;20504;-74
2024/04/26 06:06:19;;;;;;;6.40;4.70;;;;;;;4.62;62.70;95656.19;5209292;27;20042;-73
2024/04/26 06:08:51;;;;;;;8.02;5.95;;;;;;;4.68;62.35;95643.41;5209641;27;20007;-74
2024/04/26 06:11:20;;;;;;;6.32;4.40;;;;;;;4.76;62.33;95652.88;5209451;27;20014;-74
2024/04/26 06:13:49;;;;;;;8.73;4.10;;;;;;;4.82;62.24;95649.63;5209347;27;20018;-73
2024/04/26 06:16:19;;;;;;;7.45;4.30;;;;;;;4.88;61.97;95651.53;5208635;27;20018;-74
2024/04/26 06:18:52;;;;;;;5.72;4.13;;;;;;;4.97;61.98;95649.72;5209442;27;20010;-73
2024/04/26 06:21:22;;;;;;;6.63;4.25;;;;;;;5.07;61.64;95649.47;5209269;27;20381;-74
2024/04/26 06:23:57;;;;;;;7.75;4.13;;;;;;;5.17;61.27;95652.66;5209302;27;20003;-73
2024/04/26 06:26:26;;;;;;;7.13;4.05;;;;;;;5.24;61.27;95651.00;5208710;27;20386;-73
2024/04/26 06:28:56;;;;;;;7.95;4.30;;;;;;;5.28;61.07;95654.84;5208723;27;20039;-74
2024/04/26 06:31:25;;;;;;;8.27;4.03;;;;;;;5.33;61.10;95655.13;5208952;27;20496;-74
2024/04/26 06:33:54;;;;;;;9.82;4.03;;;;;;;5.40;61.03;95662.19;5209313;27;20015;-73
2024/04/26 06:36:24;;;;;;;7.63;3.92;;;;;;;5.43;60.96;95662.69;5208468;27;20081;-74
2024/04/26 06:38:56;;;;;;;5.75;3.97;;;;;;;5.46;60.77;95664.91;5208994;27;20004;-74
2024/04/26 06:41:25;;;;;;;11.13;4.55;;;;;;;5.49;60.82;95656.81;5209521;27;20008;-74
2024/04/26 06:43:55;;;;;;;6.43;4.10;;;;;;;5.49;60.69;95666.38;5208986;27;20460;-74
2024/04/26 06:46:40;;;;;;;6.03;4.40;;;;;;;5.49;60.65;95659.41;5209755;27;20479;-74
2024/04/26 06:49:09;;;;;;;5.85;4.28;;;;;;;5.50;60.69;95663.59;5211783;27;20023;-74
2024/04/26 06:51:42;;;;;;;6.90;3.75;;;;;;;5.53;60.53;95670.19;5212153;27;20056;-74
2024/04/26 06:54:14;;;;;;;8.00;3.90;;;;;;;5.57;60.59;95667.13;5212396;27;20006;-74
2024/04/26 06:56:43;;;;;;;7.03;4.53;;;;;;;5.60;60.43;95665.97;5211791;27;20014;-73
2024/04/26 06:59:14;;;;;;;9.60;5.53;;;;;;;5.62;60.55;95669.19;5211960;27;20040;-74
2024/04/26 07:01:46;;;;;;;10.50;5.60;;;;;;;5.64;60.49;95666.41;5212291;27;20080;-74
2024/04/26 07:04:15;;;;;;;8.60;5.07;;;;;;;5.67;60.40;95666.88;5212142;27;20003;-73
2024/04/26 07:06:45;;;;;;;6.95;5.18;;;;;;;5.72;60.31;95674.91;5211846;27;20010;-74
2024/04/26 07:09:17;;;;;;;7.07;4.50;;;;;;;5.77;60.08;95680.38;5212268;27;20019;-74
2024/04/26 07:11:47;;;;;;;8.88;3.55;;;;;;;5.80;60.21;95671.47;5212813;27;20008;-74
2024/04/26 07:14:17;;;;;;;5.97;3.92;;;;;;;5.85;60.18;95670.94;5217728;27;20008;-74
2024/04/26 07:16:46;;;;;;;7.50;4.32;;;;;;;5.91;60.06;95672.81;5233335;27;20011;-73
2024/04/26 07:19:16;;;;;;;6.63;4.38;;;;;;;5.98;59.82;95671.16;5230237;27;20008;-74
2024/04/26 07:21:46;;;;;;;6.13;4.82;;;;;;;6.04;59.72;95675.66;5223570;27;19999;-73
2024/04/26 07:24:18;;;;;;;6.95;5.45;;;;;;;6.11;59.68;95670.56;5233013;27;20000;-73
2024/04/26 07:26:47;;;;;;;7.20;4.18;;;;;;;6.19;59.77;95670.50;5232581;27;20008;-73
2024/04/26 07:29:17;;;;;;;6.05;4.20;;;;;;;6.30;59.68;95671.84;5232482;27;20028;-73
2024/04/26 07:31:57;;;;;;;5.13;3.83;;;;;;;6.41;59.54;95679.16;5229339;27;20015;-74
2024/04/26 07:34:28;;;;;;;5.50;4.03;;;;;;;6.50;59.80;95677.28;5214737;27;20023;-74
2024/04/26 07:36:58;;;;;;;5.70;4.00;;;;;;;6.63;59.74;95674.09;5213809;27;20018;-74
2024/04/26 07:39:30;;;;;;;8.50;4.30;;;;;;;6.72;59.06;95675.59;5212024;27;20004;-74
2024/04/26 07:42:00;;;;;;;5.97;3.55;;;;;;;6.84;59.32;95674.13;5212147;27;20530;-74
2024/04/26 07:44:29;;;;;;;14.95;4.40;;;;;;;6.99;59.38;95687.88;5212436;27;20484;-74
2024/04/26 07:46:59;;;;;;;6.47;3.55;;;;;;;7.16;60.63;95687.69;5213275;27;20004;-74
2024/04/26 07:49:31;;;;;;;5.97;3.75;;;;;;;7.31;58.94;95683.25;5213700;27;20019;-74
2024/04/26 07:52:00;;;;;;;6.03;3.05;;;;;;;7.46;57.94;95672.03;5212221;27;20000;-74
2024/04/26 07:54:32;;;;;;;4.05;2.53;;;;;;;7.59;57.59;95669.56;5211875;27;20051;-73
2024/04/26 07:57:02;;;;;;;5.25;2.92;;;;;;;7.71;57.63;95673.25;5211519;27;20004;-73
2024/04/26 07:59:32;;;;;;;3.45;2.70;;;;;;;7.78;57.57;95684.50;5212210;27;20094;-74
2024/04/26 08:02:01;;;;;;;6.63;3.55;;;;;;;7.87;57.65;95689.56;5211956;27;20004;-74
2024/04/26 08:04:30;;;;;;;6.07;3.60;;;;;;;7.94;57.25;95685.25;5211941;27;20003;-74
2024/04/26 08:07:04;;;;;;;4.10;2.92;;;;;;;8.03;57.96;95689.31;5211623;27;20003;-74
2024/04/26 08:09:36;;;;;;;6.45;2.72;;;;;;;8.12;57.52;95692.56;5211858;27;20007;-74
2024/04/26 08:12:06;;;;;;;4.60;3.42;;;;;;;8.22;57.54;95686.06;5212173;27;20008;-74
2024/04/26 08:14:35;;;;;;;6.07;2.95;;;;;;;8.33;57.61;95689.94;5212150;27;20004;-74
2024/04/26 08:17:05;;;;;;;3.13;2.80;;;;;;;8.45;58.77;95698.03;5227268;27;20015;-73
2024/04/26 08:19:34;;;;;;;5.82;2.83;;;;;;;8.56;58.82;95704.50;5229860;27;20004;-73
2024/04/26 08:22:04;;;;;;;4.28;3.10;;;;;;;8.63;57.40;95711.31;5229363;27;20000;-73
2024/04/26 08:24:33;;;;;;;5.68;2.70;;;;;;;8.71;56.57;95706.97;5213033;27;20007;-74
2024/04/26 08:27:15;;;;;;;3.55;2.22;;;;;;;8.76;55.82;95704.59;5211532;27;20007;-74
2024/04/26 08:29:46;;;;;;;5.13;2.33;;;;;;;8.78;56.72;95713.81;5211742;27;20372;-74
2024/04/26 08:32:16;;;;;;;6.13;2.67;;;;;;;8.78;56.39;95713.00;5211415;27;20019;-74
2024/04/26 08:34:45;;;;;;;5.15;2.47;;;;;;;8.81;56.05;95717.81;5211062;27;20019;-74
2024/04/26 08:37:18;;;;;;;3.03;2.70;;;;;;;8.87;56.23;95706.66;5210937;27;20075;-74
2024/04/26 08:39:47;;;;;;;3.42;2.40;;;;;;;8.97;56.92;95716.72;5228562;27;20003;-74
2024/04/26 08:42:29;;;;;;;3.90;2.17;;;;;;;9.11;56.70;95712.38;5231673;27;20383;-73
2024/04/26 08:44:58;;;;;;;2.60;2.35;;;;;;;9.26;57.21;95710.41;5231621;27;20007;-73
2024/04/26 08:47:31;;;;;;;3.70;2.13;;;;;;;9.42;56.81;95725.69;5221373;27;20016;-74
2024/04/26 08:50:02;;;;;;;;;;;;;;;9.56;56.60;95721.31;5212284;27;20031;-74
2024/04/26 08:52:33;;;;;;;6.13;2.33;;;;;;;9.65;56.09;95730.56;5211166;27;19935;-74
2024/04/26 08:55:03;;;;;;;5.32;2.63;;;;;;;9.74;56.10;95733.78;5210873;27;20007;-74
2024/04/26 08:57:35;;;;;;;4.22;2.28;;;;;;;9.83;54.39;95727.38;5210522;27;20491;-73
2024/04/26 09:00:06;;;;;;;5.65;2.10;;;;;;;9.92;54.79;95732.41;5211001;27;20011;-74
2024/04/26 09:02:36;;;;;;;4.00;2.33;;;;;;;10.03;55.07;95729.22;5211205;27;20004;-74
2024/04/26 09:05:08;;;;;;;4.07;2.80;;;;;;;10.11;54.89;95736.84;5211017;27;20003;-74
2024/04/26 09:07:38;;;;;;;2.20;1.92;;;;;;;10.15;55.08;95722.41;5210327;27;20007;-74
2024/04/26 09:10:08;;;;;;;3.10;2.15;;;;;;;10.14;54.29;95723.41;5209590;27;20004;-74
2024/04/26 09:12:40;;;;;;;3.60;2.15;;;;;;;10.12;54.46;95738.41;5210498;27;20004;-74
2024/04/26 09:15:24;;;;;;;4.50;2.38;;;;;;;10.16;55.42;95731.81;5211124;27;20039;-74
2024/04/26 09:17:54;;;;;;;2.33;1.92;;;;;;;10.23;56.18;95732.63;5210227;27;20015;-74
2024/04/26 09:20:25;;;;;;;5.00;2.30;;;;;;;10.31;55.57;95729.84;5210390;27;20348;-74
2024/04/26 09:22:54;;;;;;;3.63;2.08;;;;;;;10.36;56.05;95728.44;5210076;27;20014;-74
2024/04/26 09:25:24;;;;;;;3.30;1.77;;;;;;;10.42;56.64;95736.25;5210040;27;20000;-74
2024/04/26 09:27:56;;;;;;;2.30;1.88;;;;;;;10.47;55.82;95731.25;5209636;27;20011;-74
2024/04/26 09:30:25;;;;;;;3.63;2.15;;;;;;;10.51;55.75;95721.19;5210031;27;20011;-74
2024/04/26 09:32:55;;;;;;;3.10;1.65;;;;;;;10.55;56.12;95730.22;5209833;27;20007;-73
2024/04/26 09:35:33;;;;;;;2.25;1.67;;;;;;;10.60;55.75;95727.00;5210026;27;20007;-74
2024/04/26 09:38:07;;;;;;;1.67;1.40;;;;;;;10.65;55.82;95724.63;5211600;27;20008;-74
2024/04/26 09:40:37;;;;;;;;;;;;;;;10.72;55.67;95726.19;5214426;27;20004;-73
2024/04/26 09:43:09;;;;;;;3.35;1.15;;;;;;;10.77;55.86;95727.38;5212137;27;19928;-73
2024/04/26 09:45:39;;;;;;;3.33;1.73;;;;;;;10.79;55.96;95723.56;5213578;27;20004;-73
2024/04/26 09:48:09;;;;;;;2.53;1.23;;;;;;;10.82;55.82;95717.97;5214471;27;20004;-74
2024/04/26 09:50:40;;;;;;;2.45;0.85;;;;;;;10.85;55.89;95722.75;5210974;27;20016;-74
2024/04/26 09:53:10;;;;;;;1.08;0.90;;;;;;;10.92;55.46;95723.53;5210631;27;20055;-74
2024/04/26 09:55:39;;;;;;;1.63;1.23;;;;;;;11.01;56.02;95718.09;5209707;27;20004;-74
2024/04/26 09:58:11;;;;;;;2.83;1.20;;;;;;;11.14;55.03;95718.03;5209894;27;20008;-73
2024/04/26 10:00:41;;;;;;;2.00;1.30;;;;;;;11.32;55.22;95719.97;5210120;27;20014;-73
2024/04/26 10:03:11;;;;;;;3.33;0.77;;;;;;;11.45;55.83;95725.13;5209522;27;20360;-74
2024/04/26 10:05:41;;;;;;;1.75;1.10;;;;;;;11.53;54.45;95711.84;5209464;27;20320;-75
2024/04/26 10:08:11;;;;;;;1.65;1.13;;;;;;;11.62;54.32;95712.41;5209294;27;20387;-74
2024/04/26 10:10:41;;;;;;;2.47;0.80;;;;;;;11.72;55.04;95717.19;5209304;27;20004;-74
2024/04/26 10:13:21;;;;;;;1.48;0.80;;;;;;;11.79;53.58;95712.69;5209266;27;20008;-74
2024/04/26 10:15:54;;;;;;;1.15;0.47;;;;;;;11.81;54.92;95718.53;5209256;27;20416;-75
2024/04/26 10:18:35;;;;;;;0.85;0.85;;;;;;;11.82;53.34;95724.53;5209019;27;20004;-74
2024/04/26 10:21:05;;;;;;;0.80;0.70;;;;;;;11.77;53.57;95717.34;5209242;27;20027;-74
2024/04/26 10:23:36;;;;;;;1.17;0.75;;;;;;;11.74;54.14;95721.19;5211151;27;20479;-74
2024/04/26 10:26:09;;;;;;;0.90;0.65;;;;;;;11.71;53.72;95723.41;5212819;27;20056;-74
2024/04/26 10:28:42;;;;;;;1.05;0.52;;;;;;;11.69;54.88;95722.81;5213088;27;20490;-74
2024/04/26 10:31:11;;;;;;;;;;;;;;;11.69;54.61;95720.97;5213530;27;20004;-73
2024/04/26 10:33:40;;;;;;;1.08;0.50;;;;;;;11.69;53.75;95709.75;5212712;27;19936;-75
2024/04/26 10:36:12;;;;;;;0.60;0.60;;;;;;;11.66;53.75;95720.63;5212285;27;20004;-75
2024/04/26 10:38:42;;;;;;;0.50;0.50;;;;;;;11.62;54.28;95720.22;5212585;27;20373;-74
2024/04/26 10:41:12;;;;;;;0.65;0.65;;;;;;;11.59;54.03;95720.66;5212757;27;20008;-74
2024/04/26 10:43:45;;;;;;;1.40;0.60;;;;;;;11.60;54.34;95716.22;5212625;27;20003;-74
2024/04/26 10:46:18;;;;;;;;;;;;;;;11.61;54.53;95717.81;5212453;27;20007;-74
2024/04/26 10:48:48;;;;;;;0.73;0.57;;;;;;;11.60;54.97;95721.47;5212274;27;19928;-74
2024/04/26 10:51:21;;;;;;;0.60;0.50;;;;;;;11.60;54.54;95722.25;5212102;27;20022;-74
2024/04/26 10:53:52;;;;;;;1.38;0.60;;;;;;;11.61;55.09;95716.03;5212391;27;20015;-74
2024/04/26 10:56:21;;;;;;;1.65;0.70;;;;;;;11.65;54.63;95719.81;5211755;27;20603;-74
2024/04/26 10:58:53;;;;;;;1.63;0.75;;;;;;;11.69;54.60;95720.19;5212096;27;20472;-74
2024/04/26 11:01:24;;;;;;;0.82;0.65;;;;;;;11.72;55.19;95719.78;5211984;27;20019;-74
2024/04/26 11:03:55;;;;;;;1.17;0.70;;;;;;;11.80;55.82;95721.34;5211835;27;20014;-74
2024/04/26 11:06:30;;;;;;;1.50;0.98;;;;;;;11.85;55.49;95711.03;5211887;27;20019;-74
2024/04/26 11:09:10;;;;;;;1.52;0.52;;;;;;;11.88;55.08;95719.31;5212044;27;20056;-74
2024/04/26 11:11:41;;;;;;;0.88;0.55;;;;;;;11.91;54.27;95705.00;5211768;27;20004;-74
2024/04/26 11:14:13;;;;;;;1.90;0.43;;;;;;;11.92;53.75;95712.66;5219312;27;19996;-73
2024/04/26 11:16:43;;;;;;;1.35;0.57;;;;;;;11.99;53.75;95715.22;5231195;27;20006;-74
2024/04/26 11:19:13;;;;;;;0.45;0.30;;;;;;;12.08;53.99;95706.09;5231151;27;20003;-74
2024/04/26 11:21:42;;;;;;;1.42;0.90;;;;;;;12.21;53.68;95712.25;5214556;27;20056;-74
2024/04/26 11:24:15;;;;;;;0.98;0.50;;;;;;;12.38;53.10;95708.06;5212663;27;20012;-74
2024/04/26 11:26:46;;;;;;;0.45;0.40;;;;;;;12.52;53.72;95703.50;5211850;27;20407;-74
2024/04/26 11:29:18;;;;;;;0.50;0.50;;;;;;;12.65;53.13;95713.06;5212232;27;20004;-74
2024/04/26 11:31:48;;;;;;;0.43;0.43;;;;;;;12.72;53.24;95709.34;5211998;27;20000;-74
2024/04/26 11:34:18;;;;;;;1.35;0.90;;;;;;;12.76;52.36;95704.47;5212055;27;20113;-74
2024/04/26 11:36:50;;;;;;;2.67;0.30;;;;;;;12.77;52.21;95706.91;5211663;27;20004;-74
2024/04/26 11:39:20;;;;;;;0.70;0.60;;;;;;;12.85;53.21;95705.00;5211356;27;20032;-74
2024/04/26 11:41:49;;;;;;;1.50;0.45;;;;;;;12.89;52.34;95703.53;5211688;27;20003;-74
2024/04/26 11:44:21;;;;;;;0.77;0.63;;;;;;;12.89;51.51;95703.53;5214534;27;20004;-72
2024/04/26 11:46:48;;;;;;;0.50;0.50;;;;;;;12.90;51.82;95699.91;5212532;27;20015;-72
2024/04/26 11:49:17;;;;;;;0.73;0.50;;;;;;;12.98;51.45;95702.22;5214439;27;20015;-72
2024/04/26 11:51:47;;;;;;;0.47;0.43;;;;;;;13.04;51.94;95706.59;5214313;27;20040;-72
2024/04/26 11:54:16;;;;;;;0.63;0.63;;;;;;;13.09;51.92;95705.94;5211810;27;20004;-72
2024/04/26 11:56:45;;;;;;;0.50;0.50;;;;;;;13.08;51.28;95713.00;5211120;27;20476;-72